Time;durP1;ratioP1;P1;durP2;ratioP2;P2;SDS_P1;SDS_P2;PMS_P1;PMS_P2;Temp;Humidity;BMP_temperature;BMP_pressure;BME280_temperature;BME280_humidity;BME280_pressure;Samples;Min_cycle;Max_cycle;Signal;HPM_P1;HPM_P2
2023/05/29 07:01:19;;;;;;;0.53;0.53;;;15.30;99.90;17.80;102340.00;;;;6309397;22;20250;-72
2023/05/29 07:04:13;;;;;;;1.67;1.58;;;16.00;99.90;17.60;102297.00;;;;6282328;22;20249;-72
2023/05/29 07:06:39;;;;;;;3.15;0.80;;;16.10;99.90;17.10;102340.00;;;;6282817;22;20156;-72
2023/05/29 07:09:05;;;;;;;0.55;0.40;;;15.90;99.90;18.60;102330.00;;;;6281818;22;20175;-72
2023/05/29 07:11:31;;;;;;;2.08;0.82;;;16.30;99.90;17.80;102348.00;;;;6282326;22;20151;-72
2023/05/29 07:13:57;;;;;;;0.37;0.37;;;16.10;99.90;18.00;102348.00;;;;6256653;22;20155;-72
2023/05/29 07:16:23;;;;;;;2.33;0.73;;;16.20;99.90;17.90;102347.00;;;;6282223;22;20191;-73
2023/05/29 07:19:14;;;;;;;0.20;0.20;;;16.20;99.90;19.20;102341.00;;;;6256470;22;20208;-73
2023/05/29 07:21:48;;;;;;;2.17;0.52;;;16.30;99.90;18.30;102351.00;;;;6282064;22;20201;-72
2023/05/29 07:24:34;;;;;;;0.77;0.57;;;16.50;99.90;18.50;102365.00;;;;6256192;22;20164;-73
2023/05/29 07:27:22;;;;;;;1.10;0.50;;;16.70;99.90;17.80;102361.00;;;;6233719;22;20164;-72
2023/05/29 07:30:00;;;;;;;1.98;0.63;;;16.50;99.90;18.30;102355.00;;;;6256780;22;20218;-72
2023/05/29 07:32:33;;;;;;;3.17;0.93;;;16.20;99.90;18.00;102363.00;;;;6282171;22;20159;-72
2023/05/29 07:34:59;;;;;;;3.78;1.23;;;16.30;99.90;19.00;102364.00;;;;6256376;22;20155;-73
2023/05/29 07:37:52;;;;;;;0.32;0.32;;;16.60;99.90;19.40;102355.00;;;;6255984;22;20159;-72
2023/05/29 07:40:27;;;;;;;0.25;0.25;;;17.10;99.90;20.20;102343.00;;;;6256547;22;20160;-72
2023/05/29 07:43:25;;;;;;;5.45;1.08;;;17.30;99.90;18.60;102360.00;;;;6256427;22;20251;-73
2023/05/29 07:46:01;;;;;;;4.22;0.82;;;17.20;99.90;18.50;102372.00;;;;6281672;22;20156;-73
2023/05/29 07:48:47;;;;;;;1.40;0.57;;;16.50;99.90;19.10;102329.00;;;;6281649;22;20160;-73
2023/05/29 07:51:33;;;;;;;1.08;1.00;;;16.90;99.90;20.50;102351.00;;;;6309074;22;20137;-72
2023/05/29 07:54:18;;;;;;;0.20;0.20;;;17.40;99.90;20.00;102307.00;;;;6281767;22;20136;-72
2023/05/29 07:56:52;;;;;;;0.15;0.15;;;17.50;99.90;20.50;102348.00;;;;6282019;22;20156;-72
2023/05/29 07:59:26;;;;;;;0.45;0.40;;;17.90;99.90;19.40;102382.00;;;;6251098;22;20173;-73
2023/05/29 08:01:52;;;;;;;2.90;0.80;;;18.00;99.90;17.90;102389.00;;;;6250976;22;20200;-72
2023/05/29 08:04:26;;;;;;;0.38;0.38;;;16.60;99.90;19.30;102373.00;;;;6276505;22;20457;-72
2023/05/29 08:07:18;;;;;;;8.98;1.90;;;17.00;99.90;19.20;102397.00;;;;6276679;22;20279;-72
2023/05/29 08:09:46;;;;;;;0.13;0.13;;;17.20;99.90;19.50;102372.00;;;;6251644;22;20215;-72
2023/05/29 08:12:39;;;;;;;4.80;0.98;;;17.20;99.90;18.20;102408.00;;;;6276499;22;20191;-72
2023/05/29 08:15:26;;;;;;;0.70;0.70;;;16.70;99.90;18.50;102404.00;;;;6250855;22;20167;-72
2023/05/29 08:18:03;;;;;;;1.60;1.50;;;16.60;99.90;19.20;102387.00;;;;6276560;22;20159;-72
2023/05/29 08:20:29;;;;;;;0.20;0.20;;;17.10;99.90;19.80;102339.00;;;;6251174;22;20206;-72
2023/05/29 08:23:05;;;;;;;2.13;0.70;;;17.20;99.90;19.40;102359.00;;;;6276683;22;20222;-72
2023/05/29 08:25:31;;;;;;;0.25;0.25;;;17.50;99.90;20.70;102366.00;;;;6276426;22;20145;-72
2023/05/29 08:27:57;;;;;;;1.65;0.85;;;18.00;99.90;21.30;102366.00;;;;6276071;22;20141;-71
2023/05/29 08:30:24;;;;;;;1.65;0.40;;;18.50;99.90;20.30;102378.00;;;;6276392;22;20202;-72
2023/05/29 08:32:50;;;;;;;0.35;0.20;;;18.40;99.90;20.40;102332.00;;;;6276697;22;20144;-71
2023/05/29 08:35:16;;;;;;;0.45;0.45;;;17.90;99.90;21.40;102363.00;;;;6250694;22;20529;-71
2023/05/29 08:37:45;;;;;;;2.15;0.47;;;18.30;99.90;20.20;102391.00;;;;6276282;22;20195;-71
2023/05/29 08:40:12;;;;;;;0.25;0.25;;;18.50;99.90;20.40;102370.00;;;;6275935;22;20600;-71
2023/05/29 08:42:47;;;;;;;2.28;0.50;;;18.30;99.90;21.70;102358.00;;;;6275893;22;20176;-71
2023/05/29 08:45:14;;;;;;;3.03;0.35;;;18.80;99.90;20.30;102384.00;;;;6276019;22;20144;-72
2023/05/29 08:47:41;;;;;;;2.47;1.02;;;18.50;99.90;20.80;102381.00;;;;6250444;22;20211;-71
2023/05/29 08:50:10;;;;;;;1.95;0.75;;;18.50;99.90;20.60;102383.00;;;;6250292;22;20233;-72
2023/05/29 08:52:38;;;;;;;0.20;0.20;;;18.60;99.90;20.70;102336.00;;;;6250638;22;20549;-73
2023/05/29 08:55:05;;;;;;;1.13;0.77;;;18.50;99.90;20.60;102382.00;;;;6251061;22;20232;-73
2023/05/29 08:57:32;;;;;;;0.60;0.40;;;18.90;99.90;21.20;102378.00;;;;6225414;22;20168;-73
2023/05/29 08:59:59;;;;;;;1.08;0.85;;;18.80;99.90;20.20;102387.00;;;;6250018;22;20173;-73
2023/05/29 09:02:25;;;;;;;2.05;0.73;;;18.20;99.90;20.90;102392.00;;;;6250438;22;20177;-73
2023/05/29 09:04:54;;;;;;;0.40;0.30;;;18.80;99.90;21.10;102377.00;;;;6275480;22;20638;-73
2023/05/29 09:07:21;;;;;;;0.65;0.65;;;18.80;99.90;21.20;102375.00;;;;6275984;22;20516;-72
2023/05/29 09:09:47;;;;;;;1.35;0.98;;;18.80;99.90;20.50;102401.00;;;;6276233;22;20149;-70
2023/05/29 09:12:14;;;;;;;0.47;0.28;;;18.90;99.90;22.80;102355.00;;;;6250041;22;20175;-73
2023/05/29 09:14:45;;;;;;;2.03;1.33;;;19.50;99.90;21.30;102390.00;;;;6275889;22;20460;-73
2023/05/29 09:17:13;;;;;;;0.50;0.50;;;19.60;99.90;21.50;102390.00;;;;6275357;22;20180;-73
2023/05/29 09:19:40;;;;;;;1.65;0.95;;;19.50;99.90;21.30;102392.00;;;;6250098;22;20235;-72
2023/05/29 09:22:09;;;;;;;0.10;0.10;;;19.30;99.90;20.80;102431.00;;;;6275807;22;20165;-72
2023/05/29 09:24:40;;;;;;;0.77;0.77;;;18.70;99.90;21.50;102401.00;;;;6250315;22;20160;-72
2023/05/29 09:27:11;;;;;;;2.65;1.35;;;18.90;99.90;20.60;102426.00;;;;6250668;22;20231;-72
2023/05/29 09:29:53;;;;;;;0.55;0.55;;;18.60;99.90;21.30;102405.00;;;;6250360;22;20175;-72
2023/05/29 09:32:19;;;;;;;0.25;0.25;;;18.70;99.90;20.70;102425.00;;;;6275392;22;20545;-72
2023/05/29 09:34:47;;;;;;;0.90;0.35;;;18.20;99.90;22.50;102396.00;;;;6249989;22;20153;-72
2023/05/29 09:37:21;;;;;;;1.55;1.00;;;19.10;99.90;22.00;102384.00;;;;6275188;22;20471;-72
2023/05/29 09:39:53;;;;;;;0.45;0.45;;;19.50;99.90;21.50;102398.00;;;;6251629;22;20186;-72
2023/05/29 09:42:19;;;;;;;0.20;0.20;;;19.40;99.90;21.50;102405.00;;;;6249606;22;20179;-72
2023/05/29 09:44:53;;;;;;;0.47;0.30;;;19.00;99.90;20.70;102432.00;;;;6275381;22;20183;-72
2023/05/29 09:47:19;;;;;;;0.40;0.30;;;18.70;99.90;21.50;102422.00;;;;6275243;22;20228;-72
2023/05/29 09:49:49;;;;;;;0.30;0.30;;;19.00;99.90;22.80;102387.00;;;;6250054;22;20251;-72
2023/05/29 09:52:22;;;;;;;3.53;0.93;;;19.70;99.90;22.20;102388.00;;;;6275486;22;20142;-72
2023/05/29 09:54:56;;;;;;;0.80;0.68;;;20.20;99.90;22.30;102374.00;;;;6275654;22;20141;-72
2023/05/29 09:57:26;;;;;;;1.58;0.95;;;20.00;99.90;22.20;102357.00;;;;6274841;22;20158;-72
2023/05/29 10:00:01;;;;;;;1.30;0.52;;;20.10;99.90;22.60;102395.00;;;;6249464;22;20180;-72
2023/05/29 10:02:27;;;;;;;2.33;2.05;;;20.00;99.90;21.90;102363.00;;;;6275062;22;20306;-72
2023/05/29 10:05:03;;;;;;;0.70;0.63;;;19.90;99.90;22.60;102355.00;;;;6275673;22;20153;-73
2023/05/29 10:07:32;;;;;;;2.08;0.63;;;20.10;99.90;22.20;102368.00;;;;6249516;22;20231;-73
2023/05/29 10:10:09;;;;;;;1.85;0.80;;;20.00;99.90;21.80;102397.00;;;;6250010;22;20532;-72
2023/05/29 10:12:39;;;;;;;7.38;1.23;;;19.90;99.90;22.80;102374.00;;;;6274844;22;20221;-73
2023/05/29 10:15:31;;;;;;;0.80;0.57;;;20.10;99.90;22.00;102398.00;;;;6275703;22;20141;-73
2023/05/29 10:18:19;;;;;;;0.75;0.73;;;20.40;99.90;22.30;102395.00;;;;6274795;22;20164;-73
2023/05/29 10:33:26;;;;;;;0.38;0.35;;;19.00;99.90;22.10;102406.00;;;;5065988;28;20556;-71
2023/05/29 10:36:13;;;;;;;0.90;0.90;;;19.60;99.90;21.10;102400.00;;;;5084520;28;20654;-71
2023/05/29 10:38:45;;;;;;;0.22;0.22;;;19.80;99.90;22.20;102367.00;;;;5005597;28;20207;-71
2023/05/29 10:41:29;;;;;;;0.30;0.30;;;19.90;99.90;23.20;102343.00;;;;5047570;28;20238;-71
2023/05/29 10:44:31;;;;;;;0.10;0.10;;;20.40;99.90;22.90;102370.00;;;;5045683;28;20204;-71
2023/05/29 10:47:18;;;;;;;0.50;0.50;;;20.30;99.90;22.60;102368.00;;;;4985341;28;20549;-71
2023/05/29 10:49:54;;;;;;;2.00;1.38;;;20.60;99.90;22.00;102375.00;;;;4970033;28;20188;-71
2023/05/29 10:52:21;;;;;;;1.52;0.82;;;20.20;99.90;23.00;102364.00;;;;5015104;28;20224;-71
2023/05/29 10:55:34;;;;;;;0.40;0.25;;;20.30;99.90;21.90;102370.00;;;;5056590;28;20185;-71
2023/05/29 10:58:08;;;;;;;1.27;0.93;;;20.20;99.90;22.70;102367.00;;;;4970536;28;20187;-71
2023/05/29 11:00:41;;;;;;;0.52;0.52;;;20.20;99.90;23.20;102350.00;;;;5009450;28;20184;-71
2023/05/29 11:03:10;;;;;;;0.35;0.35;;;20.50;99.90;24.30;102338.00;;;;5032874;28;20220;-71
2023/05/29 11:05:56;;;;;;;0.38;0.38;;;21.40;99.90;24.60;102332.00;;;;5035695;28;20194;-71
2023/05/29 11:08:45;;;;;;;0.75;0.52;;;21.70;99.90;23.80;102354.00;;;;5030144;28;20669;-71
2023/05/29 11:11:36;;;;;;;0.10;0.10;;;21.50;99.90;25.00;102334.00;;;;5030635;28;20181;-71
2023/05/29 11:14:06;;;;;;;0.77;0.77;;;22.20;99.90;25.20;102327.00;;;;4999243;28;20262;-71
2023/05/29 11:16:32;;;;;;;3.03;0.80;;;22.70;99.90;22.40;102332.00;;;;4969843;28;20188;-71
2023/05/29 11:19:04;;;;;;;2.40;0.68;;;21.30;99.90;24.30;102357.00;;;;4979182;28;20189;-71
2023/05/29 11:21:51;;;;;;;2.72;1.00;;;21.50;99.90;23.60;102372.00;;;;4972423;28;20209;-71
2023/05/29 11:24:27;;;;;;;2.63;0.65;;;21.70;99.90;23.80;102352.00;;;;5038421;28;20646;-71
2023/05/29 11:26:56;;;;;;;0.55;0.55;;;21.50;99.90;24.90;102344.00;;;;5030287;28;20184;-70
2023/05/29 11:29:26;;;;;;;3.10;1.73;;;22.20;99.90;23.40;102367.00;;;;5041768;28;20192;-71
2023/05/29 11:32:02;;;;;;;1.10;1.00;;;22.00;99.90;23.10;102381.00;;;;4985972;28;20555;-70
2023/05/29 11:34:30;;;;;;;0.68;0.65;;;21.60;99.90;22.60;102383.00;;;;4968144;28;20535;-70
2023/05/29 11:37:00;;;;;;;0.30;0.30;;;21.00;99.90;22.90;102393.00;;;;4999201;28;20275;-71
2023/05/29 11:39:26;;;;;;;2.28;1.15;;;20.90;99.90;21.60;102418.00;;;;5015989;28;20184;-70
2023/05/29 11:41:57;;;;;;;0.40;0.40;;;20.50;99.90;23.40;102385.00;;;;4997967;28;20197;-71
2023/05/29 11:44:26;;;;;;;0.40;0.40;;;20.70;99.90;22.40;102392.00;;;;5070791;28;20593;-71
2023/05/29 11:47:07;;;;;;;0.20;0.20;;;20.40;99.90;24.40;102343.00;;;;4968491;28;20181;-71
2023/05/29 11:49:36;;;;;;;0.22;0.22;;;20.70;99.90;24.10;102371.00;;;;4975047;28;20289;-71
2023/05/29 11:52:33;;;;;;;0.40;0.35;;;21.00;99.90;24.50;102344.00;;;;4988298;28;20574;-71
2023/05/29 11:55:07;;;;;;;0.35;0.28;;;21.40;99.90;23.40;102371.00;;;;5035715;28;20197;-71
2023/05/29 11:58:03;;;;;;;1.95;0.75;;;21.20;99.90;23.00;102362.00;;;;4995606;28;20363;-70
2023/05/29 12:00:50;;;;;;;4.13;1.48;;;20.70;99.90;22.80;102395.00;;;;4963245;28;20564;-70
2023/05/29 12:03:16;;;;;;;0.55;0.55;;;20.60;99.90;22.90;102383.00;;;;4996913;28;20683;-70
2023/05/29 12:05:55;;;;;;;0.20;0.20;;;20.20;99.90;24.10;102356.00;;;;5046530;28;20222;-71
2023/05/29 12:08:25;;;;;;;2.25;1.08;;;20.80;99.90;23.30;102363.00;;;;5034890;28;20192;-71
2023/05/29 12:11:09;;;;;;;0.25;0.25;;;21.00;99.90;22.90;102388.00;;;;5046144;28;20205;-71
2023/05/29 12:13:36;;;;;;;0.85;0.43;;;20.80;99.90;23.10;102368.00;;;;5012589;28;20611;-70
2023/05/29 12:16:05;;;;;;;0.60;0.57;;;20.60;99.90;22.60;102385.00;;;;5068621;28;20269;-70
2023/05/29 12:18:31;;;;;;;2.05;1.17;;;20.60;99.90;23.40;102368.00;;;;5018934;28;20181;-71
2023/05/29 12:21:02;;;;;;;0.30;0.30;;;20.60;99.90;22.90;102375.00;;;;4982678;28;20551;-71
2023/05/29 12:23:37;;;;;;;0.80;0.80;;;20.50;99.90;22.00;102392.00;;;;4990034;28;20185;-71
2023/05/29 12:26:26;;;;;;;5.78;2.00;;;20.30;99.90;22.50;102342.00;;;;5013212;28;20263;-71
2023/05/29 12:28:58;;;;;;;1.40;0.90;;;20.10;99.90;23.50;102354.00;;;;4969011;28;20216;-71
2023/05/29 12:31:44;;;;;;;0.70;0.52;;;20.40;99.90;23.50;102351.00;;;;4988781;28;20249;-72
2023/05/29 12:34:26;;;;;;;0.28;0.28;;;20.90;99.90;24.50;102324.00;;;;5030014;28;20239;-72
2023/05/29 12:37:06;;;;;;;0.20;0.20;;;21.10;99.90;23.20;102360.00;;;;4985731;28;20201;-72
2023/05/29 12:39:41;;;;;;;0.55;0.55;;;21.10;99.90;24.00;102332.00;;;;5021223;28;20327;-72
2023/05/29 12:42:30;;;;;;;0.85;0.85;;;21.10;99.90;24.40;102343.00;;;;4974771;28;20185;-72
2023/05/29 12:45:47;;;;;;;2.92;0.95;;;21.30;99.90;23.10;102362.00;;;;5047597;28;20195;-72
2023/05/29 12:48:13;;;;;;;0.30;0.30;;;20.60;99.90;23.30;102356.00;;;;5016475;28;20231;-72
2023/05/29 12:50:40;;;;;;;0.82;0.82;;;20.50;99.90;22.90;102364.00;;;;4966194;28;20216;-72
2023/05/29 12:53:28;;;;;;;0.20;0.20;;;20.40;99.90;23.60;102333.00;;;;4949523;28;20213;-71
2023/05/29 12:56:21;;;;;;;0.40;0.40;;;20.60;99.90;23.20;102368.00;;;;4959844;28;20639;-72
2023/05/29 12:59:00;;;;;;;28.80;3.78;;;20.60;99.90;24.30;102357.00;;;;5003852;28;20185;-71
2023/05/29 13:01:42;;;;;;;0.10;0.10;;;20.90;99.90;24.10;102344.00;;;;5017617;28;20201;-66
2023/05/29 13:04:28;;;;;;;1.42;1.23;;;21.10;99.90;23.00;102360.00;;;;4977651;28;20193;-69
2023/05/29 13:06:57;;;;;;;0.43;0.43;;;20.80;99.90;24.00;102352.00;;;;5001897;28;20582;-69
2023/05/29 13:09:27;;;;;;;1.02;0.75;;;20.60;99.90;23.40;102350.00;;;;4979136;28;20181;-68
2023/05/29 13:11:53;;;;;;;0.88;0.70;;;20.70;99.90;22.80;102361.00;;;;5041629;28;20220;-68
2023/05/29 13:14:19;;;;;;;3.35;3.15;;;20.40;99.90;23.50;102360.00;;;;5015740;28;20193;-68
2023/05/29 13:16:45;;;;;;;0.45;0.45;;;20.50;99.90;22.90;102364.00;;;;5050763;28;20184;-68
2023/05/29 13:19:16;;;;;;;0.63;0.63;;;20.60;99.90;23.40;102363.00;;;;5008545;28;20192;-68
2023/05/29 13:21:48;;;;;;;1.25;1.00;;;20.60;99.90;24.20;102338.00;;;;4979402;28;20671;-68
2023/05/29 13:24:13;;;;;;;0.60;0.60;;;21.00;99.90;23.70;102360.00;;;;4955071;28;20220;-69
2023/05/29 13:26:44;;;;;;;2.28;0.73;;;20.80;99.90;23.40;102359.00;;;;4974243;28;20239;-68
2023/05/29 13:29:10;;;;;;;5.38;0.75;;;20.80;99.90;23.50;102351.00;;;;5015940;28;20195;-68
2023/05/29 13:31:45;;;;;;;3.35;1.13;;;20.80;99.90;22.40;102349.00;;;;4971076;28;20312;-68
2023/05/29 13:34:15;;;;;;;0.17;0.17;;;20.60;99.90;24.00;102352.00;;;;5020109;28;20655;-68
2023/05/29 13:36:40;;;;;;;3.38;1.10;;;20.60;99.90;22.70;102353.00;;;;5016949;28;20188;-68
2023/05/29 13:39:15;;;;;;;0.60;0.60;;;20.60;99.90;22.70;102362.00;;;;4964086;28;20539;-68
2023/05/29 13:41:42;;;;;;;0.30;0.30;;;20.20;99.90;24.00;102352.00;;;;5026019;28;20275;-68
2023/05/29 13:44:11;;;;;;;1.42;0.90;;;20.50;99.90;23.00;102351.00;;;;4977115;28;20184;-67
2023/05/29 13:47:20;;;;;;;1.40;0.73;;;20.60;99.90;23.40;102310.00;;;;4990590;28;20189;-68
2023/05/29 13:49:48;;;;;;;7.93;0.57;;;20.70;99.90;24.70;102321.00;;;;5031216;28;20266;-68
2023/05/29 13:52:24;;;;;;;0.35;0.35;;;21.10;99.90;24.10;102340.00;;;;5021779;28;20325;-68
2023/05/29 13:54:53;;;;;;;1.73;0.88;;;21.10;99.90;23.60;102343.00;;;;5011216;28;20241;-68
2023/05/29 13:57:19;;;;;;;0.85;0.85;;;20.80;99.90;22.90;102363.00;;;;4995733;28;20177;-68
2023/05/29 13:59:48;;;;;;;0.20;0.20;;;20.60;99.90;23.50;102337.00;;;;5034321;28;20628;-68
2023/05/29 14:02:51;;;;;;;0.20;0.20;;;20.60;99.90;23.70;102346.00;;;;5042117;28;20228;-68
2023/05/29 14:05:18;;;;;;;4.38;1.38;;;20.40;99.90;22.80;102342.00;;;;5041299;28;20321;-68
2023/05/29 14:07:45;;;;;;;0.57;0.55;;;20.50;99.90;23.20;102340.00;;;;5054016;28;20627;-69
2023/05/29 14:10:32;;;;;;;0.40;0.40;;;20.50;99.90;23.60;102328.00;;;;5039800;28;20631;-68
2023/05/29 14:12:57;;;;;;;0.40;0.40;;;20.70;99.90;24.80;102314.00;;;;5041999;28;20201;-68
2023/05/29 14:15:27;;;;;;;2.95;0.77;;;21.10;99.90;23.20;102339.00;;;;4981132;28;20185;-68
2023/05/29 14:17:53;;;;;;;0.98;0.85;;;20.90;99.90;23.60;102332.00;;;;5012223;28;20196;-68
2023/05/29 14:20:35;;;;;;;0.65;0.65;;;20.80;99.90;22.70;102346.00;;;;5006045;28;20200;-68
2023/05/29 14:23:01;;;;;;;1.80;0.70;;;20.60;99.90;22.90;102343.00;;;;4976532;28;20193;-68
2023/05/29 14:25:35;;;;;;;1.67;0.82;;;20.40;99.90;23.50;102335.00;;;;5046560;28;20670;-68
2023/05/29 14:28:20;;;;;;;4.30;0.95;;;20.60;99.90;22.70;102339.00;;;;5036117;28;20173;-67
2023/05/29 14:31:16;;;;;;;1.30;0.77;;;20.40;99.90;23.50;102335.00;;;;4970971;28;20181;-68
2023/05/29 14:34:25;;;;;;;2.75;0.45;;;20.50;99.90;22.10;102348.00;;;;4987638;28;20220;-68
2023/05/29 14:36:54;;;;;;;0.28;0.20;;;20.20;99.90;22.90;102337.00;;;;5020577;28;20669;-68
2023/05/29 14:39:29;;;;;;;4.80;0.57;;;20.00;99.90;22.60;102342.00;;;;4981787;28;20272;-68
2023/05/29 14:42:13;;;;;;;0.28;0.28;;;20.10;99.90;22.70;102348.00;;;;4954000;28;20545;-68
2023/05/29 14:44:39;;;;;;;1.38;0.65;;;20.20;99.90;23.60;102330.00;;;;4986735;28;20192;-68
2023/05/29 14:47:28;;;;;;;1.27;1.20;;;20.60;99.90;22.60;102349.00;;;;4956495;28;20235;-69
2023/05/29 14:50:12;;;;;;;0.10;0.10;;;20.40;99.90;23.80;102332.00;;;;4984181;28;20278;-68
2023/05/29 14:52:38;;;;;;;0.38;0.38;;;20.50;99.90;24.40;102318.00;;;;4979232;28;20223;-68
2023/05/29 14:55:16;;;;;;;0.20;0.20;;;20.80;99.90;23.40;102297.00;;;;5014645;28;20263;-68
2023/05/29 14:57:42;;;;;;;2.15;1.13;;;20.70;99.90;23.70;102286.00;;;;5027564;28;20186;-68
2023/05/29 15:00:45;;;;;;;2.00;1.27;;;20.60;99.90;22.20;102349.00;;;;5038482;28;20207;-67
2023/05/29 15:03:26;;;;;;;0.50;0.50;;;20.10;99.90;22.80;102342.00;;;;4990323;28;20208;-67
2023/05/29 15:05:53;;;;;;;0.65;0.50;;;20.00;99.90;22.70;102342.00;;;;5021987;28;20595;-67
2023/05/29 15:08:24;;;;;;;0.63;0.28;;;20.00;99.90;23.00;102313.00;;;;5009304;28;20255;-66
2023/05/29 15:10:53;;;;;;;0.13;0.13;;;20.20;99.90;23.80;102341.00;;;;4974373;28;20196;-67
2023/05/29 15:13:22;;;;;;;0.35;0.35;;;20.20;99.90;23.40;102346.00;;;;5008650;28;20220;-67
2023/05/29 15:15:48;;;;;;;0.50;0.45;;;20.40;99.90;22.80;102342.00;;;;5002245;28;20644;-67
2023/05/29 15:18:19;;;;;;;0.85;0.47;;;20.20;99.90;22.00;102354.00;;;;5018818;28;20200;-67
2023/05/29 15:20:45;;;;;;;0.17;0.17;;;19.80;99.90;22.30;102371.00;;;;4993819;28;20178;-66
2023/05/29 15:23:15;;;;;;;0.50;0.47;;;19.80;99.90;22.80;102360.00;;;;5047712;28;20224;-67
2023/05/29 15:25:41;;;;;;;1.52;0.90;;;19.80;99.90;22.40;102354.00;;;;4976092;28;20208;-67
2023/05/29 15:28:06;;;;;;;0.17;0.17;;;19.90;99.90;23.20;102362.00;;;;4975670;28;20197;-67
2023/05/29 15:30:53;;;;;;;0.38;0.38;;;20.00;99.90;23.50;102309.00;;;;4983626;28;20632;-67
2023/05/29 15:33:19;;;;;;;1.08;0.50;;;20.30;99.90;23.70;102347.00;;;;5014387;28;20227;-67
2023/05/29 15:35:46;;;;;;;1.88;0.52;;;20.50;99.90;23.10;102352.00;;;;4995384;28;20314;-67
2023/05/29 15:38:12;;;;;;;3.28;0.38;;;20.40;99.90;22.00;102363.00;;;;4990073;28;20700;-66
2023/05/29 15:40:41;;;;;;;0.40;0.40;;;19.90;99.90;22.90;102358.00;;;;5065141;28;20173;-67
2023/05/29 15:43:17;;;;;;;3.42;0.65;;;19.70;99.90;22.40;102352.00;;;;5029414;28;20192;-67
2023/05/29 15:45:43;;;;;;;1.60;0.30;;;19.70;99.90;22.50;102311.00;;;;5032225;28;20193;-67
2023/05/29 15:48:32;;;;;;;0.70;0.70;;;19.80;99.90;22.10;102384.00;;;;5002670;28;20178;-66
2023/05/29 15:50:58;;;;;;;1.95;0.80;;;19.70;99.90;21.90;102381.00;;;;5059987;28;20186;-67
2023/05/29 15:53:24;;;;;;;0.93;0.93;;;19.50;99.90;22.40;102370.00;;;;5004364;28;20262;-67
2023/05/29 15:55:49;;;;;;;0.50;0.50;;;19.60;99.90;22.00;102378.00;;;;4980196;28;20272;-67
2023/05/29 15:58:18;;;;;;;3.35;2.90;;;19.50;99.90;22.30;102371.00;;;;5036775;28;20264;-67
2023/05/29 16:00:51;;;;;;;0.10;0.10;;;19.60;99.90;23.00;102358.00;;;;5001061;28;20238;-67
2023/05/29 16:03:20;;;;;;;0.50;0.50;;;19.90;99.90;21.30;102388.00;;;;5011022;28;20208;-67
2023/05/29 16:05:46;;;;;;;1.00;0.95;;;19.40;99.90;22.00;102389.00;;;;5035382;28;20707;-67
2023/05/29 16:08:12;;;;;;;0.40;0.40;;;19.20;99.90;21.40;102390.00;;;;5006431;28;20193;-67
2023/05/29 16:10:47;;;;;;;1.25;1.15;;;19.00;99.90;21.30;102372.00;;;;4987752;28;20548;-67
2023/05/29 16:13:16;;;;;;;0.40;0.40;;;18.80;99.90;21.90;102381.00;;;;4992207;28;20666;-67
2023/05/29 16:15:45;;;;;;;1.93;1.03;;;19.00;99.90;21.60;102390.00;;;;4998492;28;20190;-67
2023/05/29 16:18:58;;;;;;;2.33;1.40;;;18.90;99.90;20.90;102401.00;;;;4990300;28;20219;-67
2023/05/29 16:21:25;;;;;;;3.57;1.67;;;18.80;99.90;21.50;102406.00;;;;4975204;28;20303;-67
2023/05/29 16:24:34;;;;;;;0.50;0.50;;;18.90;99.90;21.60;102412.00;;;;4966265;28;20235;-67
2023/05/29 16:27:38;;;;;;;0.57;0.57;;;18.80;99.90;21.80;102394.00;;;;5017217;28;20271;-67
2023/05/29 16:30:43;;;;;;;1.17;0.77;;;19.00;99.90;21.10;102402.00;;;;4963999;28;20200;-67
2023/05/29 16:33:29;;;;;;;1.05;0.90;;;18.90;99.90;21.30;102398.00;;;;4994564;28;20318;-67
2023/05/29 16:36:02;;;;;;;1.90;1.80;;;18.80;99.90;21.30;102360.00;;;;5022019;28;20192;-67
2023/05/29 16:38:29;;;;;;;3.20;2.73;;;18.80;99.90;21.50;102399.00;;;;4973243;28;20183;-68
2023/05/29 16:41:20;;;;;;;3.83;0.45;;;18.80;99.90;21.50;102398.00;;;;5038390;28;20249;-67
2023/05/29 16:44:09;;;;;;;0.28;0.20;;;18.80;99.90;21.80;102403.00;;;;5016473;28;20192;-67
2023/05/29 16:47:12;;;;;;;1.20;0.85;;;19.00;99.90;21.40;102399.00;;;;4966230;28;20196;-67
2023/05/29 16:50:20;;;;;;;1.80;0.50;;;18.80;99.90;21.30;102367.00;;;;4999742;28;20288;-67
2023/05/29 16:52:49;;;;;;;0.10;0.10;;;18.70;99.90;22.40;102355.00;;;;5010340;28;20258;-67
2023/05/29 16:55:47;;;;;;;0.90;0.80;;;19.10;99.90;21.40;102376.00;;;;5028286;28;20212;-67
2023/05/29 16:58:16;;;;;;;0.47;0.47;;;19.10;99.90;21.70;102367.00;;;;5007493;28;20189;-67
2023/05/29 17:01:23;;;;;;;1.52;1.42;;;19.00;99.90;21.20;102397.00;;;;5040865;28;20193;-67
2023/05/29 17:04:31;;;;;;;1.80;0.70;;;18.90;99.90;21.60;102385.00;;;;5019879;28;20280;-67
2023/05/29 17:07:04;;;;;;;1.00;0.57;;;18.80;99.90;21.20;102383.00;;;;4978845;28;20176;-67
2023/05/29 17:09:50;;;;;;;1.75;0.60;;;18.80;99.90;21.20;102393.00;;;;5010840;28;20184;-67
2023/05/29 17:12:43;;;;;;;0.70;0.70;;;18.80;99.90;21.30;102401.00;;;;4974873;28;20280;-67
2023/05/29 17:15:35;;;;;;;1.05;0.52;;;18.90;99.90;21.70;102343.00;;;;5076661;28;20201;-67
2023/05/29 17:18:18;;;;;;;0.20;0.20;;;18.90;99.90;22.40;102372.00;;;;5055211;28;20276;-67
2023/05/29 17:20:53;;;;;;;2.75;2.03;;;19.10;99.90;21.80;102377.00;;;;5012828;28;20521;-67
2023/05/29 17:23:19;;;;;;;0.30;0.30;;;19.20;99.90;21.90;102361.00;;;;5012396;28;20643;-67
2023/05/29 17:26:06;;;;;;;2.20;1.02;;;19.10;99.90;21.20;102391.00;;;;4989682;28;20238;-67
2023/05/29 17:28:35;;;;;;;1.55;0.60;;;18.90;99.90;21.40;102388.00;;;;4956925;28;20716;-73
2023/05/29 17:31:19;;;;;;;0.63;0.40;;;18.90;99.90;21.80;102391.00;;;;5028823;28;20192;-67
2023/05/29 17:33:56;;;;;;;2.33;0.80;;;18.80;99.90;21.00;102401.00;;;;5017906;28;20673;-67
2023/05/29 17:36:28;;;;;;;0.82;0.82;;;18.70;99.90;21.00;102414.00;;;;4976112;28;20585;-68
2023/05/29 17:39:30;;;;;;;1.77;0.95;;;18.50;99.90;21.00;102407.00;;;;4979872;28;20257;-67
2023/05/29 17:42:18;;;;;;;3.03;1.30;;;18.50;99.90;20.80;102413.00;;;;4984831;28;20545;-67
2023/05/29 17:45:10;;;;;;;2.53;0.77;;;18.40;99.90;20.60;102421.00;;;;4980660;28;20730;-66
2023/05/29 17:48:05;;;;;;;1.08;0.28;;;18.40;99.90;20.80;102409.00;;;;4982067;28;20582;-66
2023/05/29 17:50:54;;;;;;;2.00;0.90;;;18.30;99.90;20.60;102411.00;;;;4986123;28;20323;-66
2023/05/29 17:53:43;;;;;;;1.40;0.93;;;18.30;99.90;21.20;102403.00;;;;4981520;28;20357;-66
2023/05/29 17:56:33;;;;;;;0.63;0.63;;;18.40;99.90;21.20;102388.00;;;;4980729;28;20193;-66
2023/05/29 17:59:39;;;;;;;0.67;0.67;;;18.40;99.90;20.60;102418.00;;;;4982259;28;20213;-66
2023/05/29 18:02:32;;;;;;;2.77;0.50;;;18.40;99.90;20.80;102412.00;;;;4983803;28;20199;-66
2023/05/29 18:05:23;;;;;;;5.33;1.47;;;18.20;99.90;20.50;102405.00;;;;4985398;28;20203;-67
2023/05/29 18:08:20;;;;;;;0.70;0.40;;;18.10;99.90;20.60;102421.00;;;;5032489;28;20196;-66
2023/05/29 18:11:14;;;;;;;0.73;0.47;;;18.00;99.90;20.50;102423.00;;;;4960850;28;20203;-66
2023/05/29 18:13:54;;;;;;;2.83;1.07;;;17.90;99.90;20.00;102421.00;;;;4978589;28;20216;-66
2023/05/29 18:16:54;;;;;;;4.00;1.50;;;17.80;99.90;20.00;102439.00;;;;4980448;28;20182;-66
2023/05/29 18:19:38;;;;;;;1.10;0.70;;;17.80;99.90;19.70;102439.00;;;;4978224;28;20236;-66
2023/05/29 18:22:18;;;;;;;0.37;0.37;;;17.60;99.90;20.20;102434.00;;;;4982658;28;20196;-66
2023/05/29 18:25:07;;;;;;;1.17;0.70;;;17.70;99.90;20.30;102443.00;;;;4982238;28;20200;-66
2023/05/29 18:28:00;;;;;;;3.23;1.47;;;17.60;99.90;20.30;102428.00;;;;5032676;28;20641;-66
2023/05/29 18:30:39;;;;;;;1.63;0.47;;;17.70;99.90;20.00;102430.00;;;;5030539;28;20270;-66
2023/05/29 18:33:22;;;;;;;1.53;0.60;;;17.50;99.90;19.90;102440.00;;;;4989011;28;20232;-66
2023/05/29 18:35:56;;;;;;;0.53;0.53;;;17.50;99.90;20.00;102447.00;;;;4981926;28;20611;-66
2023/05/29 18:38:44;;;;;;;0.70;0.60;;;17.50;99.90;20.00;102402.00;;;;4983632;28;20186;-66
2023/05/29 18:41:34;;;;;;;0.40;0.40;;;17.40;99.90;19.90;102448.00;;;;5048893;28;20199;-66
2023/05/29 18:44:23;;;;;;;2.70;1.17;;;17.40;99.90;19.40;102446.00;;;;4964403;28;20229;-66